sensor_id;sensor_type;location;lat;lon;timestamp;pressure;altitude;pressure_sealevel;temperature;humidity
65659;BME280;60181;53.258;6.932;2023-11-21T00:02:52;101084.90;;;15.85;66.71
65659;BME280;60181;53.258;6.932;2023-11-21T00:07:12;101084.58;;;15.84;66.66
65659;BME280;60181;53.258;6.932;2023-11-21T00:11:32;101086.13;;;15.83;66.46
65659;BME280;60181;53.258;6.932;2023-11-21T00:15:52;101087.44;;;15.82;66.49
65659;BME280;60181;53.258;6.932;2023-11-21T00:20:12;101088.36;;;15.81;66.34
65659;BME280;60181;53.258;6.932;2023-11-21T00:24:32;101089.90;;;15.81;66.36
65659;BME280;60181;53.258;6.932;2023-11-21T00:28:52;101090.63;;;15.80;66.21
65659;BME280;60181;53.258;6.932;2023-11-21T00:33:12;101090.97;;;15.80;66.26
65659;BME280;60181;53.258;6.932;2023-11-21T00:37:32;101090.56;;;15.80;66.17
65659;BME280;60181;53.258;6.932;2023-11-21T00:41:52;101091.71;;;15.79;66.10
65659;BME280;60181;53.258;6.932;2023-11-21T00:46:12;101092.85;;;15.78;65.98
65659;BME280;60181;53.258;6.932;2023-11-21T00:50:32;101094.75;;;15.77;65.96
65659;BME280;60181;53.258;6.932;2023-11-21T00:54:52;101098.21;;;15.76;65.84
65659;BME280;60181;53.258;6.932;2023-11-21T00:59:12;101101.90;;;15.76;65.92
65659;BME280;60181;53.258;6.932;2023-11-21T01:03:32;101106.18;;;15.74;65.89
65659;BME280;60181;53.258;6.932;2023-11-21T01:07:52;101112.62;;;15.74;65.93
65659;BME280;60181;53.258;6.932;2023-11-21T01:12:12;101119.50;;;15.75;66.20
65659;BME280;60181;53.258;6.932;2023-11-21T01:16:32;101126.03;;;15.75;66.15
65659;BME280;60181;53.258;6.932;2023-11-21T01:20:52;101133.04;;;15.75;65.97
65659;BME280;60181;53.258;6.932;2023-11-21T01:25:12;101141.38;;;15.76;66.00
65659;BME280;60181;53.258;6.932;2023-11-21T01:29:32;101149.14;;;15.76;66.01
65659;BME280;60181;53.258;6.932;2023-11-21T01:33:52;101156.58;;;15.76;65.92
65659;BME280;60181;53.258;6.932;2023-11-21T01:38:12;101164.42;;;15.75;65.97
65659;BME280;60181;53.258;6.932;2023-11-21T01:42:32;101171.70;;;15.75;66.21
65659;BME280;60181;53.258;6.932;2023-11-21T01:46:52;101176.79;;;15.74;66.15
65659;BME280;60181;53.258;6.932;2023-11-21T01:51:12;101181.76;;;15.74;66.19
65659;BME280;60181;53.258;6.932;2023-11-21T01:55:32;101186.36;;;15.73;66.20
65659;BME280;60181;53.258;6.932;2023-11-21T01:59:52;101192.15;;;15.73;66.12
65659;BME280;60181;53.258;6.932;2023-11-21T02:04:12;101197.85;;;15.72;66.12
65659;BME280;60181;53.258;6.932;2023-11-21T02:08:32;101203.28;;;15.72;66.20
65659;BME280;60181;53.258;6.932;2023-11-21T02:12:52;101208.31;;;15.72;66.18
65659;BME280;60181;53.258;6.932;2023-11-21T02:17:12;101211.77;;;15.71;66.23
65659;BME280;60181;53.258;6.932;2023-11-21T02:21:32;101213.92;;;15.71;66.37
65659;BME280;60181;53.258;6.932;2023-11-21T02:25:52;101216.46;;;15.70;66.34
65659;BME280;60181;53.258;6.932;2023-11-21T02:30:12;101221.17;;;15.70;66.36
65659;BME280;60181;53.258;6.932;2023-11-21T02:34:32;101226.37;;;15.69;66.34
65659;BME280;60181;53.258;6.932;2023-11-21T02:38:52;101232.73;;;15.69;66.42
65659;BME280;60181;53.258;6.932;2023-11-21T02:43:12;101241.16;;;15.69;66.42
65659;BME280;60181;53.258;6.932;2023-11-21T02:47:32;101248.67;;;15.69;66.14
65659;BME280;60181;53.258;6.932;2023-11-21T02:51:52;101254.88;;;15.69;66.13
65659;BME280;60181;53.258;6.932;2023-11-21T02:56:12;101260.16;;;15.69;66.04
65659;BME280;60181;53.258;6.932;2023-11-21T03:00:32;101264.78;;;15.69;66.08
65659;BME280;60181;53.258;6.932;2023-11-21T03:04:52;101268.75;;;15.69;66.21
65659;BME280;60181;53.258;6.932;2023-11-21T03:09:12;101272.77;;;15.69;65.81
65659;BME280;60181;53.258;6.932;2023-11-21T03:13:32;101277.56;;;15.69;65.72
65659;BME280;60181;53.258;6.932;2023-11-21T03:17:52;101281.19;;;15.69;65.79
65659;BME280;60181;53.258;6.932;2023-11-21T03:22:12;101284.48;;;15.69;65.64
65659;BME280;60181;53.258;6.932;2023-11-21T03:26:32;101288.05;;;15.69;65.58
65659;BME280;60181;53.258;6.932;2023-11-21T03:30:52;101290.52;;;15.69;65.61
65659;BME280;60181;53.258;6.932;2023-11-21T03:35:12;101292.83;;;15.69;65.55
65659;BME280;60181;53.258;6.932;2023-11-21T03:39:32;101296.97;;;15.69;65.53
65659;BME280;60181;53.258;6.932;2023-11-21T03:43:52;101301.84;;;15.68;65.44
65659;BME280;60181;53.258;6.932;2023-11-21T03:48:12;101307.21;;;15.68;65.41
65659;BME280;60181;53.258;6.932;2023-11-21T03:52:32;101312.47;;;15.68;65.39
65659;BME280;60181;53.258;6.932;2023-11-21T03:56:52;101319.64;;;15.67;65.33
65659;BME280;60181;53.258;6.932;2023-11-21T04:01:12;101326.33;;;15.66;65.33
65659;BME280;60181;53.258;6.932;2023-11-21T04:05:32;101330.69;;;15.65;65.37
65659;BME280;60181;53.258;6.932;2023-11-21T04:09:52;101335.15;;;15.65;65.41
65659;BME280;60181;53.258;6.932;2023-11-21T04:14:12;101340.11;;;15.65;65.31
65659;BME280;60181;53.258;6.932;2023-11-21T04:18:32;101346.53;;;15.64;65.94
65659;BME280;60181;53.258;6.932;2023-11-21T04:22:52;101352.54;;;15.63;65.92
65659;BME280;60181;53.258;6.932;2023-11-21T04:27:12;101359.48;;;15.62;66.12
65659;BME280;60181;53.258;6.932;2023-11-21T04:31:32;101366.49;;;15.62;66.51
65659;BME280;60181;53.258;6.932;2023-11-21T04:35:52;101373.14;;;15.61;66.18
65659;BME280;60181;53.258;6.932;2023-11-21T04:40:12;101379.17;;;15.61;65.76
65659;BME280;60181;53.258;6.932;2023-11-21T04:44:32;101385.92;;;15.60;66.44
65659;BME280;60181;53.258;6.932;2023-11-21T04:48:52;101392.61;;;15.59;65.98
65659;BME280;60181;53.258;6.932;2023-11-21T04:53:12;101400.83;;;15.58;66.10
65659;BME280;60181;53.258;6.932;2023-11-21T04:57:32;101409.65;;;15.56;66.46
65659;BME280;60181;53.258;6.932;2023-11-21T05:01:52;101416.74;;;15.55;66.49
65659;BME280;60181;53.258;6.932;2023-11-21T05:06:12;101424.22;;;15.54;65.94
65659;BME280;60181;53.258;6.932;2023-11-21T05:10:32;101432.87;;;15.53;65.76
65659;BME280;60181;53.258;6.932;2023-11-21T05:14:52;101440.37;;;15.52;66.24
65659;BME280;60181;53.258;6.932;2023-11-21T05:19:12;101447.63;;;15.52;66.34
65659;BME280;60181;53.258;6.932;2023-11-21T05:23:32;101455.89;;;15.52;65.38
65659;BME280;60181;53.258;6.932;2023-11-21T05:27:52;101464.29;;;15.51;65.52
65659;BME280;60181;53.258;6.932;2023-11-21T05:32:11;101471.37;;;15.49;65.35
65659;BME280;60181;53.258;6.932;2023-11-21T05:36:32;101477.96;;;15.48;65.22
65659;BME280;60181;53.258;6.932;2023-11-21T05:40:51;101485.18;;;15.46;65.09
65659;BME280;60181;53.258;6.932;2023-11-21T05:45:11;101492.10;;;15.45;65.23
65659;BME280;60181;53.258;6.932;2023-11-21T05:49:31;101499.84;;;15.44;65.06
65659;BME280;60181;53.258;6.932;2023-11-21T05:53:51;101506.92;;;15.43;64.85
65659;BME280;60181;53.258;6.932;2023-11-21T05:58:11;101515.48;;;15.41;64.84
65659;BME280;60181;53.258;6.932;2023-11-21T06:02:31;101524.76;;;15.40;64.74
65659;BME280;60181;53.258;6.932;2023-11-21T06:06:51;101533.48;;;15.38;64.65
65659;BME280;60181;53.258;6.932;2023-11-21T06:11:11;101541.48;;;15.37;64.38
65659;BME280;60181;53.258;6.932;2023-11-21T06:15:32;101550.26;;;15.35;64.35
65659;BME280;60181;53.258;6.932;2023-11-21T06:19:51;101560.53;;;15.33;64.18
65659;BME280;60181;53.258;6.932;2023-11-21T06:24:12;101570.72;;;15.31;64.23
65659;BME280;60181;53.258;6.932;2023-11-21T06:28:32;101579.38;;;15.29;64.11
65659;BME280;60181;53.258;6.932;2023-11-21T06:32:51;101586.58;;;15.27;63.98
65659;BME280;60181;53.258;6.932;2023-11-21T06:37:11;101595.39;;;15.26;63.95
65659;BME280;60181;53.258;6.932;2023-11-21T06:41:32;101602.22;;;15.25;63.93
65659;BME280;60181;53.258;6.932;2023-11-21T06:45:51;101608.31;;;15.23;63.86
65659;BME280;60181;53.258;6.932;2023-11-21T06:50:11;101615.21;;;15.23;63.86
65659;BME280;60181;53.258;6.932;2023-11-21T06:54:31;101623.14;;;15.22;63.78
65659;BME280;60181;53.258;6.932;2023-11-21T06:58:51;101631.77;;;15.22;63.57
65659;BME280;60181;53.258;6.932;2023-11-21T07:03:11;101639.26;;;15.20;63.55
65659;BME280;60181;53.258;6.932;2023-11-21T07:07:31;101646.72;;;15.18;63.71
65659;BME280;60181;53.258;6.932;2023-11-21T07:11:52;101655.22;;;15.18;63.49
65659;BME280;60181;53.258;6.932;2023-11-21T07:16:11;101662.87;;;15.17;62.98
65659;BME280;60181;53.258;6.932;2023-11-21T07:20:31;101672.12;;;15.14;63.14
65659;BME280;60181;53.258;6.932;2023-11-21T07:24:51;101681.94;;;15.10;63.18
65659;BME280;60181;53.258;6.932;2023-11-21T07:29:11;101690.31;;;15.08;62.84
65659;BME280;60181;53.258;6.932;2023-11-21T07:33:31;101698.75;;;15.06;62.79
65659;BME280;60181;53.258;6.932;2023-11-21T07:37:51;101706.53;;;15.04;62.88
65659;BME280;60181;53.258;6.932;2023-11-21T07:42:11;101713.40;;;15.02;62.49
65659;BME280;60181;53.258;6.932;2023-11-21T07:46:31;101721.72;;;15.01;62.47
65659;BME280;60181;53.258;6.932;2023-11-21T07:50:51;101730.11;;;14.99;62.27
65659;BME280;60181;53.258;6.932;2023-11-21T07:55:11;101739.90;;;14.98;62.07
65659;BME280;60181;53.258;6.932;2023-11-21T07:59:31;101749.33;;;14.96;61.79
65659;BME280;60181;53.258;6.932;2023-11-21T08:03:51;101757.31;;;14.94;61.65
65659;BME280;60181;53.258;6.932;2023-11-21T08:08:11;101764.75;;;14.93;61.40
65659;BME280;60181;53.258;6.932;2023-11-21T08:12:31;101772.06;;;14.92;61.22
65659;BME280;60181;53.258;6.932;2023-11-21T08:16:51;101779.47;;;14.91;61.20
65659;BME280;60181;53.258;6.932;2023-11-21T08:21:14;101789.86;;;14.90;61.01
65659;BME280;60181;53.258;6.932;2023-11-21T08:25:32;101800.06;;;14.89;60.75
65659;BME280;60181;53.258;6.932;2023-11-21T08:29:51;101810.21;;;14.89;61.59
65659;BME280;60181;53.258;6.932;2023-11-21T08:34:11;101819.45;;;14.93;62.33
65659;BME280;60181;53.258;6.932;2023-11-21T08:38:31;101829.88;;;14.97;62.49
65659;BME280;60181;53.258;6.932;2023-11-21T08:42:51;101839.04;;;15.01;63.03
65659;BME280;60181;53.258;6.932;2023-11-21T08:47:11;101846.63;;;15.04;63.17
65659;BME280;60181;53.258;6.932;2023-11-21T08:51:31;101853.33;;;15.07;63.27
65659;BME280;60181;53.258;6.932;2023-11-21T08:55:51;101859.84;;;15.10;63.33
65659;BME280;60181;53.258;6.932;2023-11-21T09:00:11;101865.02;;;15.13;63.43
65659;BME280;60181;53.258;6.932;2023-11-21T09:04:31;101868.87;;;15.15;63.58
65659;BME280;60181;53.258;6.932;2023-11-21T09:08:51;101874.88;;;15.17;63.70
65659;BME280;60181;53.258;6.932;2023-11-21T09:13:11;101882.65;;;15.19;63.81
65659;BME280;60181;53.258;6.932;2023-11-21T09:17:32;101891.63;;;15.20;63.90
65659;BME280;60181;53.258;6.932;2023-11-21T09:21:51;101900.08;;;15.21;64.01
65659;BME280;60181;53.258;6.932;2023-11-21T09:26:11;101908.28;;;15.23;64.09
65659;BME280;60181;53.258;6.932;2023-11-21T09:30:31;101915.83;;;15.24;64.15
65659;BME280;60181;53.258;6.932;2023-11-21T09:34:51;101924.19;;;15.25;64.23
65659;BME280;60181;53.258;6.932;2023-11-21T09:39:11;101934.70;;;15.26;64.26
65659;BME280;60181;53.258;6.932;2023-11-21T09:43:31;101943.97;;;15.27;64.34
65659;BME280;60181;53.258;6.932;2023-11-21T09:47:52;101951.87;;;15.29;64.68
65659;BME280;60181;53.258;6.932;2023-11-21T09:52:11;101961.10;;;15.32;64.82
65659;BME280;60181;53.258;6.932;2023-11-21T09:56:32;101969.90;;;15.34;64.91
65659;BME280;60181;53.258;6.932;2023-11-21T10:00:52;101978.06;;;15.36;65.07
65659;BME280;60181;53.258;6.932;2023-11-21T10:05:11;101985.47;;;15.38;65.08
65659;BME280;60181;53.258;6.932;2023-11-21T10:09:31;101992.27;;;15.40;65.07
65659;BME280;60181;53.258;6.932;2023-11-21T10:13:54;101999.51;;;15.41;64.99
65659;BME280;60181;53.258;6.932;2023-11-21T10:18:11;102006.30;;;15.43;64.98
65659;BME280;60181;53.258;6.932;2023-11-21T10:22:31;102013.84;;;15.44;65.01
65659;BME280;60181;53.258;6.932;2023-11-21T10:26:51;102021.23;;;15.46;65.02
65659;BME280;60181;53.258;6.932;2023-11-21T10:31:11;102029.96;;;15.47;65.04
65659;BME280;60181;53.258;6.932;2023-11-21T10:35:46;102037.59;;;15.48;65.04
65659;BME280;60181;53.258;6.932;2023-11-21T10:39:51;102043.37;;;15.48;65.10
65659;BME280;60181;53.258;6.932;2023-11-21T10:44:13;102047.33;;;15.49;65.13
65659;BME280;60181;53.258;6.932;2023-11-21T10:48:31;102050.33;;;15.50;65.13
65659;BME280;60181;53.258;6.932;2023-11-21T10:52:51;102054.00;;;15.51;65.14
65659;BME280;60181;53.258;6.932;2023-11-21T10:57:11;102059.23;;;15.52;65.10
65659;BME280;60181;53.258;6.932;2023-11-21T11:01:31;102064.33;;;15.54;65.17
65659;BME280;60181;53.258;6.932;2023-11-21T11:05:51;102068.66;;;15.55;65.15
65659;BME280;60181;53.258;6.932;2023-11-21T11:10:11;102073.32;;;15.56;65.21
65659;BME280;60181;53.258;6.932;2023-11-21T11:14:31;102077.44;;;15.57;65.24
65659;BME280;60181;53.258;6.932;2023-11-21T11:18:51;102081.93;;;15.58;65.27
65659;BME280;60181;53.258;6.932;2023-11-21T11:27:40;102089.67;;;15.59;65.26
65659;BME280;60181;53.258;6.932;2023-11-21T11:31:58;102093.88;;;15.60;65.35
65659;BME280;60181;53.258;6.932;2023-11-21T11:36:21;102097.05;;;15.60;65.30
65659;BME280;60181;53.258;6.932;2023-11-21T11:40:40;102101.67;;;15.61;65.49
65659;BME280;60181;53.258;6.932;2023-11-21T11:44:51;102106.41;;;15.62;65.61
65659;BME280;60181;53.258;6.932;2023-11-21T11:49:23;102110.82;;;15.62;65.63
65659;BME280;60181;53.258;6.932;2023-11-21T11:53:37;102114.29;;;15.63;65.60
65659;BME280;60181;53.258;6.932;2023-11-21T11:57:51;102118.42;;;15.63;65.54
65659;BME280;60181;53.258;6.932;2023-11-21T12:02:11;102123.82;;;15.64;65.52
65659;BME280;60181;53.258;6.932;2023-11-21T12:06:34;102129.36;;;15.64;65.49
65659;BME280;60181;53.258;6.932;2023-11-21T12:10:51;102133.68;;;15.65;65.47
65659;BME280;60181;53.258;6.932;2023-11-21T12:15:11;102137.87;;;15.67;65.42
65659;BME280;60181;53.258;6.932;2023-11-21T12:19:31;102142.69;;;15.68;65.43
65659;BME280;60181;53.258;6.932;2023-11-21T12:23:51;102148.10;;;15.69;65.41
65659;BME280;60181;53.258;6.932;2023-11-21T12:28:11;102153.63;;;15.70;65.51
65659;BME280;60181;53.258;6.932;2023-11-21T12:32:31;102160.19;;;15.70;65.53
65659;BME280;60181;53.258;6.932;2023-11-21T12:36:51;102167.17;;;15.70;65.60
65659;BME280;60181;53.258;6.932;2023-11-21T12:41:11;102172.88;;;15.70;65.67
65659;BME280;60181;53.258;6.932;2023-11-21T12:45:31;102176.51;;;15.69;65.73
65659;BME280;60181;53.258;6.932;2023-11-21T12:49:51;102179.61;;;15.68;65.82
65659;BME280;60181;53.258;6.932;2023-11-21T12:54:11;102181.90;;;15.67;65.94
65659;BME280;60181;53.258;6.932;2023-11-21T12:58:31;102184.59;;;15.66;65.94
65659;BME280;60181;53.258;6.932;2023-11-21T13:02:51;102189.22;;;15.66;65.94
65659;BME280;60181;53.258;6.932;2023-11-21T13:07:11;102194.42;;;15.66;65.94
65659;BME280;60181;53.258;6.932;2023-11-21T13:11:33;102199.88;;;15.66;65.95
65659;BME280;60181;53.258;6.932;2023-11-21T13:15:52;102204.33;;;15.66;65.91
65659;BME280;60181;53.258;6.932;2023-11-21T13:20:11;102207.64;;;15.66;65.94
65659;BME280;60181;53.258;6.932;2023-11-21T13:24:31;102211.44;;;15.66;66.04
65659;BME280;60181;53.258;6.932;2023-11-21T13:28:51;102216.14;;;15.66;66.00
65659;BME280;60181;53.258;6.932;2023-11-21T13:33:11;102220.85;;;15.66;66.14
65659;BME280;60181;53.258;6.932;2023-11-21T13:37:31;102224.49;;;15.66;66.09
65659;BME280;60181;53.258;6.932;2023-11-21T13:41:51;102227.95;;;15.66;66.27
65659;BME280;60181;53.258;6.932;2023-11-21T13:46:11;102232.50;;;15.66;66.27
65659;BME280;60181;53.258;6.932;2023-11-21T13:50:31;102238.28;;;15.66;66.27
65659;BME280;60181;53.258;6.932;2023-11-21T13:54:51;102245.58;;;15.67;66.23
65659;BME280;60181;53.258;6.932;2023-11-21T13:59:11;102251.58;;;15.67;66.24
65659;BME280;60181;53.258;6.932;2023-11-21T14:03:31;102258.11;;;15.66;66.25
65659;BME280;60181;53.258;6.932;2023-11-21T14:07:51;102264.95;;;15.66;66.28
65659;BME280;60181;53.258;6.932;2023-11-21T14:12:11;102271.78;;;15.65;66.29
65659;BME280;60181;53.258;6.932;2023-11-21T14:16:31;102278.39;;;15.65;66.32
65659;BME280;60181;53.258;6.932;2023-11-21T14:20:51;102284.01;;;15.65;66.26
65659;BME280;60181;53.258;6.932;2023-11-21T14:25:11;102288.87;;;15.65;66.30
65659;BME280;60181;53.258;6.932;2023-11-21T14:29:31;102294.87;;;15.64;66.31
65659;BME280;60181;53.258;6.932;2023-11-21T14:33:51;102301.23;;;15.64;66.39
65659;BME280;60181;53.258;6.932;2023-11-21T14:38:11;102306.85;;;15.64;66.36
65659;BME280;60181;53.258;6.932;2023-11-21T14:42:31;102313.55;;;15.64;66.42
65659;BME280;60181;53.258;6.932;2023-11-21T14:46:51;102319.78;;;15.63;66.44
65659;BME280;60181;53.258;6.932;2023-11-21T14:51:11;102328.38;;;15.63;66.51
65659;BME280;60181;53.258;6.932;2023-11-21T14:55:33;102337.22;;;15.63;66.50
65659;BME280;60181;53.258;6.932;2023-11-21T14:59:51;102344.81;;;15.63;66.50
65659;BME280;60181;53.258;6.932;2023-11-21T15:04:11;102352.58;;;15.63;66.54
65659;BME280;60181;53.258;6.932;2023-11-21T15:08:31;102361.83;;;15.63;66.53
65659;BME280;60181;53.258;6.932;2023-11-21T15:12:51;102371.66;;;15.63;66.55
65659;BME280;60181;53.258;6.932;2023-11-21T15:17:11;102380.74;;;15.63;66.56
65659;BME280;60181;53.258;6.932;2023-11-21T15:21:31;102389.00;;;15.63;66.55
65659;BME280;60181;53.258;6.932;2023-11-21T15:25:51;102396.51;;;15.63;66.51
65659;BME280;60181;53.258;6.932;2023-11-21T15:30:11;102401.89;;;15.63;66.63
65659;BME280;60181;53.258;6.932;2023-11-21T15:34:31;102407.08;;;15.63;66.61
65659;BME280;60181;53.258;6.932;2023-11-21T15:38:51;102411.79;;;15.62;66.60
65659;BME280;60181;53.258;6.932;2023-11-21T15:43:11;102418.62;;;15.62;66.65
65659;BME280;60181;53.258;6.932;2023-11-21T15:47:31;102424.98;;;15.62;66.67
65659;BME280;60181;53.258;6.932;2023-11-21T15:51:51;102430.35;;;15.62;66.66
65659;BME280;60181;53.258;6.932;2023-11-21T15:56:11;102436.71;;;15.61;66.67
65659;BME280;60181;53.258;6.932;2023-11-21T16:00:31;102443.85;;;15.62;67.91
65659;BME280;60181;53.258;6.932;2023-11-21T16:04:51;102450.44;;;15.65;67.73
65659;BME280;60181;53.258;6.932;2023-11-21T16:09:11;102457.34;;;15.66;67.52
65659;BME280;60181;53.258;6.932;2023-11-21T16:13:31;102464.03;;;15.67;67.55
65659;BME280;60181;53.258;6.932;2023-11-21T16:17:51;102468.93;;;15.67;67.51
65659;BME280;60181;53.258;6.932;2023-11-21T16:22:11;102474.89;;;15.68;67.40
65659;BME280;60181;53.258;6.932;2023-11-21T16:26:31;102480.09;;;15.67;67.48
65659;BME280;60181;53.258;6.932;2023-11-21T16:30:51;102487.27;;;15.67;67.71
65659;BME280;60181;53.258;6.932;2023-11-21T16:35:11;102495.53;;;15.67;67.67
65659;BME280;60181;53.258;6.932;2023-11-21T16:39:31;102502.64;;;15.67;67.35
65659;BME280;60181;53.258;6.932;2023-11-21T16:43:51;102509.75;;;15.67;67.25
65659;BME280;60181;53.258;6.932;2023-11-21T16:48:11;102514.83;;;15.66;67.23
65659;BME280;60181;53.258;6.932;2023-11-21T16:52:31;102521.03;;;15.67;67.14
65659;BME280;60181;53.258;6.932;2023-11-21T16:56:51;102526.64;;;15.67;67.10
65659;BME280;60181;53.258;6.932;2023-11-21T17:01:11;102532.70;;;15.67;67.04
65659;BME280;60181;53.258;6.932;2023-11-21T17:05:31;102538.99;;;15.67;67.05
65659;BME280;60181;53.258;6.932;2023-11-21T17:09:51;102545.67;;;15.67;67.03
65659;BME280;60181;53.258;6.932;2023-11-21T17:14:11;102550.39;;;15.67;66.98
65659;BME280;60181;53.258;6.932;2023-11-21T17:18:31;102555.76;;;15.67;67.01
65659;BME280;60181;53.258;6.932;2023-11-21T17:22:51;102562.71;;;15.68;67.36
65659;BME280;60181;53.258;6.932;2023-11-21T17:27:11;102574.13;;;15.68;67.21
65659;BME280;60181;53.258;6.932;2023-11-21T17:31:31;102584.30;;;15.69;67.17
65659;BME280;60181;53.258;6.932;2023-11-21T17:35:50;102594.13;;;15.69;67.18
65659;BME280;60181;53.258;6.932;2023-11-21T17:40:11;102603.22;;;15.69;67.12
65659;BME280;60181;53.258;6.932;2023-11-21T17:44:30;102612.29;;;15.69;67.12
65659;BME280;60181;53.258;6.932;2023-11-21T17:48:51;102620.47;;;15.69;67.14
65659;BME280;60181;53.258;6.932;2023-11-21T17:53:10;102628.91;;;15.69;67.15
65659;BME280;60181;53.258;6.932;2023-11-21T17:57:33;102636.93;;;15.68;67.12
65659;BME280;60181;53.258;6.932;2023-11-21T18:01:50;102643.86;;;15.68;67.10
65659;BME280;60181;53.258;6.932;2023-11-21T18:06:11;102649.06;;;15.68;67.08
65659;BME280;60181;53.258;6.932;2023-11-21T18:10:31;102653.89;;;15.68;67.06
65659;BME280;60181;53.258;6.932;2023-11-21T18:14:50;102659.27;;;15.68;67.12
65659;BME280;60181;53.258;6.932;2023-11-21T18:19:11;102665.12;;;15.67;67.10
65659;BME280;60181;53.258;6.932;2023-11-21T18:23:30;102669.59;;;15.67;67.02
65659;BME280;60181;53.258;6.932;2023-11-21T18:27:50;102674.95;;;15.67;67.01
65659;BME280;60181;53.258;6.932;2023-11-21T18:32:10;102678.81;;;15.67;66.97
65659;BME280;60181;53.258;6.932;2023-11-21T18:36:30;102682.19;;;15.66;66.97
65659;BME280;60181;53.258;6.932;2023-11-21T18:40:50;102686.73;;;15.66;66.97
65659;BME280;60181;53.258;6.932;2023-11-21T18:45:10;102691.27;;;15.66;66.98
65659;BME280;60181;53.258;6.932;2023-11-21T18:49:30;102695.41;;;15.66;66.96
65659;BME280;60181;53.258;6.932;2023-11-21T18:53:50;102698.79;;;15.66;66.98
65659;BME280;60181;53.258;6.932;2023-11-21T18:58:10;102704.08;;;15.66;67.00
65659;BME280;60181;53.258;6.932;2023-11-21T19:02:30;102709.25;;;15.65;66.96
65659;BME280;60181;53.258;6.932;2023-11-21T19:06:50;102714.31;;;15.66;66.89
65659;BME280;60181;53.258;6.932;2023-11-21T19:11:10;102719.12;;;15.66;66.88
65659;BME280;60181;53.258;6.932;2023-11-21T19:15:30;102724.66;;;15.66;66.93
65659;BME280;60181;53.258;6.932;2023-11-21T19:19:50;102728.37;;;15.66;66.93
65659;BME280;60181;53.258;6.932;2023-11-21T19:24:10;102734.40;;;15.66;67.37
65659;BME280;60181;53.258;6.932;2023-11-21T19:28:30;102739.64;;;15.67;67.22
65659;BME280;60181;53.258;6.932;2023-11-21T19:32:50;102744.10;;;15.68;67.05
65659;BME280;60181;53.258;6.932;2023-11-21T19:37:10;102748.68;;;15.68;67.08
65659;BME280;60181;53.258;6.932;2023-11-21T19:41:30;102751.99;;;15.68;67.08
65659;BME280;60181;53.258;6.932;2023-11-21T19:45:50;102756.82;;;15.68;67.14
65659;BME280;60181;53.258;6.932;2023-11-21T19:50:10;102763.11;;;15.68;67.11
65659;BME280;60181;53.258;6.932;2023-11-21T19:54:30;102769.38;;;15.68;67.12
65659;BME280;60181;53.258;6.932;2023-11-21T19:58:50;102775.50;;;15.68;67.05
65659;BME280;60181;53.258;6.932;2023-11-21T20:03:10;102782.10;;;15.68;67.06
65659;BME280;60181;53.258;6.932;2023-11-21T20:07:30;102787.06;;;15.68;67.04
65659;BME280;60181;53.258;6.932;2023-11-21T20:11:50;102791.44;;;15.68;67.04
65659;BME280;60181;53.258;6.932;2023-11-21T20:16:10;102794.58;;;15.68;67.07
65659;BME280;60181;53.258;6.932;2023-11-21T20:20:30;102796.64;;;15.67;67.06
65659;BME280;60181;53.258;6.932;2023-11-21T20:24:50;102798.05;;;15.67;67.05
65659;BME280;60181;53.258;6.932;2023-11-21T20:29:10;102801.01;;;15.67;67.06
65659;BME280;60181;53.258;6.932;2023-11-21T20:33:30;102804.54;;;15.67;67.05
65659;BME280;60181;53.258;6.932;2023-11-21T20:37:50;102809.91;;;15.66;67.05
65659;BME280;60181;53.258;6.932;2023-11-21T20:42:10;102815.94;;;15.67;67.03
65659;BME280;60181;53.258;6.932;2023-11-21T20:46:30;102822.62;;;15.66;67.05
65659;BME280;60181;53.258;6.932;2023-11-21T20:50:50;102830.71;;;15.66;67.04
65659;BME280;60181;53.258;6.932;2023-11-21T20:55:10;102839.73;;;15.67;67.07
65659;BME280;60181;53.258;6.932;2023-11-21T20:59:30;102846.34;;;15.67;67.07
65659;BME280;60181;53.258;6.932;2023-11-21T21:03:50;102852.58;;;15.67;67.08
65659;BME280;60181;53.258;6.932;2023-11-21T21:08:10;102856.58;;;15.67;67.08
65659;BME280;60181;53.258;6.932;2023-11-21T21:12:30;102861.05;;;15.67;67.07
65659;BME280;60181;53.258;6.932;2023-11-21T21:16:50;102864.51;;;15.67;67.05
65659;BME280;60181;53.258;6.932;2023-11-21T21:21:10;102868.23;;;15.66;67.06
65659;BME280;60181;53.258;6.932;2023-11-21T21:25:30;102871.69;;;15.66;67.09
65659;BME280;60181;53.258;6.932;2023-11-21T21:29:50;102875.57;;;15.66;67.08
65659;BME280;60181;53.258;6.932;2023-11-21T21:34:10;102879.05;;;15.66;67.04
65659;BME280;60181;53.258;6.932;2023-11-21T21:38:30;102884.17;;;15.66;67.05
65659;BME280;60181;53.258;6.932;2023-11-21T21:42:50;102889.09;;;15.67;68.44
65659;BME280;60181;53.258;6.932;2023-11-21T21:47:10;102892.93;;;15.68;64.24
65659;BME280;60181;53.258;6.932;2023-11-21T21:51:30;102895.56;;;15.66;62.53
65659;BME280;60181;53.258;6.932;2023-11-21T21:55:50;102897.03;;;15.62;61.41
65659;BME280;60181;53.258;6.932;2023-11-21T22:00:10;102899.50;;;15.57;61.30
65659;BME280;60181;53.258;6.932;2023-11-21T22:04:31;102903.70;;;15.53;60.69
65659;BME280;60181;53.258;6.932;2023-11-21T22:08:50;102908.64;;;15.49;59.80
65659;BME280;60181;53.258;6.932;2023-11-21T22:13:10;102914.21;;;15.45;59.20
65659;BME280;60181;53.258;6.932;2023-11-21T22:17:30;102921.58;;;15.42;58.52
65659;BME280;60181;53.258;6.932;2023-11-21T22:21:50;102931.52;;;15.39;58.49
65659;BME280;60181;53.258;6.932;2023-11-21T22:26:13;102938.65;;;15.35;57.79
65659;BME280;60181;53.258;6.932;2023-11-21T22:30:30;102942.88;;;15.32;57.68
65659;BME280;60181;53.258;6.932;2023-11-21T22:34:50;102946.50;;;15.29;57.21
65659;BME280;60181;53.258;6.932;2023-11-21T22:39:10;102949.49;;;15.26;56.87
65659;BME280;60181;53.258;6.932;2023-11-21T22:43:30;102954.42;;;15.23;56.91